Kugler, Minnesota
Current Conditions -  °F | °C
As of 5:35 AM on Friday 31 Oct 2014 (Local Time) from KCQM Reporting Station
Overcast Overcast  
Wind Chill: -7°   Ceiling: 2900
Heat Index: -3°   Visibility: 10mi
Dew Point: -8°   Wind: 6mph
Humidity: 69%   Direction: 10°N
Pressure: 30.5"   Gusts: NA
Location:  47.7992°N, 92.3042°W
Report Text: KCQM 311035Z AUTO 01005KT 10SM OVC029 M03/M08 A3050 RMK AO2
Loading
Personal Weather Stations






























Interactive Weather Map
Tropical Storm Tracking
New forecast layout! Learn more

10-Day Weather Forecast

Advertisements
Track Severe Weather on mobile